Time;durP1;ratioP1;P1;durP2;ratioP2;P2;SDS_P1;SDS_P2;PMS_P1;PMS_P2;Temp;Humidity;BMP_temperature;BMP_pressure;BME280_temperature;BME280_humidity;BME280_pressure;Samples;Min_cycle;Max_cycle;Signal;HPM_P1;HPM_P2
2023/12/01 10:17:44;;;;;;;125.10;80.20;;;;;;;1.12;79.26;95848.97;105135;1272;100292;-75
2023/12/01 10:20:13;;;;;;;123.80;78.00;;;;;;;1.15;79.14;95843.81;106710;1258;96128;-75
2023/12/01 10:22:40;;;;;;;121.10;76.10;;;;;;;1.18;79.08;95833.37;106713;1252;95918;-75
2023/12/01 10:25:11;;;;;;;118.00;72.80;;;;;;;1.25;79.20;95833.88;106795;1253;97112;-75
2023/12/01 10:27:40;;;;;;;121.40;71.90;;;;;;;1.31;79.06;95819.70;106732;1252;101309;-75
2023/12/01 10:30:14;;;;;;;107.60;69.10;;;;;;;1.32;78.99;95813.49;106438;1250;99243;-75
2023/12/01 10:32:43;;;;;;;110.10;68.80;;;;;;;1.35;79.10;95821.29;106423;1255;96027;-78
2023/12/01 10:35:09;;;;;;;113.70;68.50;;;;;;;1.41;79.00;95827.30;106371;1255;96068;-78
2023/12/01 10:37:37;;;;;;;108.40;68.40;;;;;;;1.44;78.96;95823.64;106345;1256;95988;-78
2023/12/01 10:40:05;;;;;;;107.10;68.10;;;;;;;1.44;78.79;95823.52;106307;1258;95863;-77
2023/12/01 10:42:34;;;;;;;102.40;66.60;;;;;;;1.39;78.67;95829.21;106359;1255;96280;-77
2023/12/01 10:45:03;;;;;;;95.00;58.90;;;;;;;1.42;78.71;95815.61;106350;1255;95856;-77
2023/12/01 10:47:30;;;;;;;91.30;57.60;;;;;;;1.44;78.59;95802.61;106263;1253;96011;-78
2023/12/01 10:49:58;;;;;;;98.90;61.80;;;;;;;1.42;78.50;95809.56;106379;1262;100686;-77
2023/12/01 10:52:25;;;;;;;88.90;58.70;;;;;;;1.41;78.55;95815.33;106347;1257;99936;-71
2023/12/01 10:54:52;;;;;;;86.90;55.20;;;;;;;1.44;78.68;95815.62;107921;1253;96183;-71
2023/12/01 10:57:38;;;;;;;84.30;53.80;;;;;;;1.49;78.53;95817.77;106399;1263;96057;-72
2023/12/01 11:00:06;;;;;;;82.60;54.10;;;;;;;1.46;78.33;95810.97;106338;1250;96145;-71
2023/12/01 11:02:37;;;;;;;91.90;57.60;;;;;;;1.50;78.47;95819.92;106573;1251;100673;-72
2023/12/01 11:05:07;;;;;;;88.00;56.10;;;;;;;1.52;78.59;95821.25;106468;1258;100002;-72
2023/12/01 11:08:04;;;;;;;103.50;61.60;;;;;;;1.55;78.55;95826.22;106582;1251;99945;-72
2023/12/01 11:10:39;;;;;;;89.60;56.80;;;;;;;1.54;78.18;95831.66;106520;1251;95894;-72
2023/12/01 11:13:27;;;;;;;92.50;58.20;;;;;;;1.51;78.12;95821.52;106661;1252;95933;-72
2023/12/01 11:16:26;;;;;;;95.10;61.10;;;;;;;1.52;78.27;95814.98;106799;1251;99555;-78
2023/12/01 11:19:23;;;;;;;95.00;58.30;;;;;;;1.54;78.37;95812.80;109426;1252;101570;-77
2023/12/01 11:22:10;;;;;;;93.40;60.10;;;;;;;1.59;78.50;95825.95;104857;1275;99423;-80
2023/12/01 11:25:06;;;;;;;90.90;58.90;;;;;;;1.61;78.17;95822.73;105305;1264;96816;-78
2023/12/01 11:27:53;;;;;;;86.50;55.70;;;;;;;1.58;78.17;95817.69;104738;1270;96038;-77
2023/12/01 11:30:23;;;;;;;77.60;50.80;;;;;;;1.58;78.32;95814.16;104769;1271;100752;-80
2023/12/01 11:32:50;;;;;;;76.20;48.90;;;;;;;1.57;78.40;95800.94;104448;1273;102633;-81
2023/12/01 11:35:19;;;;;;;71.90;47.10;;;;;;;1.56;78.36;95794.15;104486;1272;99861;-81
2023/12/01 11:38:00;;;;;;;88.80;52.80;;;;;;;1.56;78.37;95789.25;104742;1269;96880;-80
2023/12/01 11:40:37;;;;;;;81.20;51.60;;;;;;;1.57;78.27;95796.86;104748;1270;96034;-80
2023/12/01 11:43:07;;;;;;;93.00;57.40;;;;;;;1.60;78.32;95805.46;104745;1266;100773;-80
2023/12/01 11:45:57;;;;;;;93.40;57.80;;;;;;;1.64;78.32;95812.95;104746;1269;101392;-82
2023/12/01 11:48:26;;;;;;;94.80;59.00;;;;;;;1.64;78.35;95816.75;104752;1273;99634;-81
2023/12/01 11:51:34;;;;;;;82.90;54.60;;;;;;;1.63;78.34;95820.38;104653;1270;96090;-78
2023/12/01 11:54:35;;;;;;;89.10;55.10;;;;;;;1.64;78.35;95817.36;103806;1281;97096;-77
2023/12/01 11:57:35;;;;;;;82.40;52.70;;;;;;;1.65;78.35;95819.95;104067;1279;99860;-76
2023/12/01 12:00:41;;;;;;;73.70;49.40;;;;;;;1.62;78.46;95814.85;104038;1278;101615;-76
2023/12/01 12:03:53;;;;;;;74.60;49.50;;;;;;;1.60;78.46;95817.20;103605;1294;98989;-81
2023/12/01 12:06:50;;;;;;;65.80;45.10;;;;;;;1.65;78.34;95829.03;103544;1290;96378;-81
2023/12/01 12:12:30;;;;;;;71.00;47.80;;;;;;;1.66;78.38;95823.65;103443;1295;100384;-82
2023/12/01 12:15:13;;;;;;;74.90;49.60;;;;;;;1.66;78.23;95820.33;103499;1284;101015;-81
2023/12/01 12:18:07;;;;;;;79.40;53.10;;;;;;;1.65;78.31;95826.46;103351;1288;100822;-78
2023/12/01 12:32:20;;;;;;;99.40;79.20;;;;;;;1.68;78.39;95785.44;103687;1289;96280;-91
2023/12/01 12:34:56;;;;;;;88.50;66.90;;;;;;;1.70;78.39;95789.08;103558;1283;97163;-88
2023/12/01 12:38:22;;;;;;;86.70;64.50;;;;;;;1.72;78.27;95789.79;104215;1281;103655;-89
2023/12/01 12:41:04;;;;;;;73.20;56.20;;;;;;;1.74;78.40;95805.68;104204;1278;100442;-91
2023/12/01 12:44:14;;;;;;;76.20;54.30;;;;;;;1.78;78.44;95810.84;104364;1279;100125;-90
2023/12/01 12:47:18;;;;;;;73.20;50.70;;;;;;;1.84;78.23;95821.45;104394;1278;96018;-81
2023/12/01 12:49:45;;;;;;;86.00;56.50;;;;;;;1.89;78.32;95816.05;104866;1268;96832;-76
2023/12/01 12:52:16;;;;;;;105.20;67.80;;;;;;;1.92;78.17;95815.30;104876;1270;95852;-75
2023/12/01 12:55:05;;;;;;;108.70;70.50;;;;;;;1.93;78.22;95814.60;104880;1269;102427;-76
2023/12/01 12:57:31;;;;;;;112.60;70.10;;;;;;;1.92;78.30;95816.89;104690;1279;98923;-76
2023/12/01 13:00:28;;;;;;;106.60;68.20;;;;;;;1.88;78.17;95823.91;104952;1275;96519;-76
2023/12/01 13:03:00;;;;;;;104.40;66.70;;;;;;;1.86;78.20;95826.04;105364;1267;95986;-79
2023/12/01 13:05:31;;;;;;;105.50;65.20;;;;;;;1.84;78.22;95825.88;105515;1263;100994;-80
2023/12/01 13:08:27;;;;;;;106.70;66.60;;;;;;;1.81;78.33;95824.06;105848;1267;100262;-76
2023/12/01 13:10:54;;;;;;;98.30;62.80;;;;;;;1.78;78.47;95828.15;105926;1255;100145;-80
2023/12/01 13:13:21;;;;;;;106.00;65.60;;;;;;;1.77;78.55;95836.98;106544;1262;97586;-75
2023/12/01 13:15:47;;;;;;;117.50;71.10;;;;;;;1.80;78.55;95841.69;107013;1248;97799;-93
